sensor_id;sensor_type;location;lat;lon;timestamp;P1;durP1;ratioP1;P2;durP2;ratioP2
42904;SDS011;28550;51.228;4.528;2023-09-18T00:00:43;15.80;;;13.35;;
42904;SDS011;28550;51.228;4.528;2023-09-18T00:03:10;17.13;;;14.05;;
42904;SDS011;28550;51.228;4.528;2023-09-18T00:05:37;17.45;;;13.25;;
42904;SDS011;28550;51.228;4.528;2023-09-18T00:08:05;18.73;;;12.68;;
42904;SDS011;28550;51.228;4.528;2023-09-18T00:10:30;15.05;;;12.23;;
42904;SDS011;28550;51.228;4.528;2023-09-18T00:12:56;16.95;;;12.50;;
42904;SDS011;28550;51.228;4.528;2023-09-18T00:15:22;19.20;;;12.25;;
42904;SDS011;28550;51.228;4.528;2023-09-18T00:17:48;15.60;;;12.50;;
42904;SDS011;28550;51.228;4.528;2023-09-18T00:20:14;17.23;;;12.80;;
42904;SDS011;28550;51.228;4.528;2023-09-18T00:22:42;16.15;;;12.50;;
42904;SDS011;28550;51.228;4.528;2023-09-18T00:25:08;15.55;;;11.77;;
42904;SDS011;28550;51.228;4.528;2023-09-18T00:27:34;20.63;;;12.73;;
42904;SDS011;28550;51.228;4.528;2023-09-18T00:30:01;17.35;;;13.00;;
42904;SDS011;28550;51.228;4.528;2023-09-18T00:32:28;19.02;;;12.70;;
42904;SDS011;28550;51.228;4.528;2023-09-18T00:34:54;14.70;;;11.32;;
42904;SDS011;28550;51.228;4.528;2023-09-18T00:37:20;13.40;;;11.93;;
42904;SDS011;28550;51.228;4.528;2023-09-18T00:39:46;17.25;;;11.88;;
42904;SDS011;28550;51.228;4.528;2023-09-18T00:42:11;15.68;;;12.10;;
42904;SDS011;28550;51.228;4.528;2023-09-18T00:44:44;18.52;;;12.60;;
42904;SDS011;28550;51.228;4.528;2023-09-18T00:47:10;18.95;;;12.05;;
42904;SDS011;28550;51.228;4.528;2023-09-18T00:49:38;16.33;;;11.45;;
42904;SDS011;28550;51.228;4.528;2023-09-18T00:52:06;15.68;;;13.13;;
42904;SDS011;28550;51.228;4.528;2023-09-18T00:54:37;17.08;;;12.32;;
42904;SDS011;28550;51.228;4.528;2023-09-18T00:57:04;13.02;;;11.23;;
42904;SDS011;28550;51.228;4.528;2023-09-18T00:59:30;17.95;;;11.80;;
42904;SDS011;28550;51.228;4.528;2023-09-18T01:01:57;17.92;;;12.35;;
42904;SDS011;28550;51.228;4.528;2023-09-18T01:04:24;14.85;;;11.20;;
42904;SDS011;28550;51.228;4.528;2023-09-18T01:06:53;13.98;;;10.68;;
42904;SDS011;28550;51.228;4.528;2023-09-18T01:09:21;15.05;;;10.98;;
42904;SDS011;28550;51.228;4.528;2023-09-18T01:15:08;14.77;;;11.13;;
42904;SDS011;28550;51.228;4.528;2023-09-18T01:17:42;15.38;;;12.20;;
42904;SDS011;28550;51.228;4.528;2023-09-18T01:20:09;15.00;;;10.95;;
42904;SDS011;28550;51.228;4.528;2023-09-18T01:22:35;14.90;;;11.27;;
42904;SDS011;28550;51.228;4.528;2023-09-18T01:25:01;16.92;;;11.52;;
42904;SDS011;28550;51.228;4.528;2023-09-18T01:27:27;14.68;;;11.07;;
42904;SDS011;28550;51.228;4.528;2023-09-18T01:29:53;17.13;;;11.88;;
42904;SDS011;28550;51.228;4.528;2023-09-18T01:32:19;13.75;;;10.43;;
42904;SDS011;28550;51.228;4.528;2023-09-18T01:34:51;21.17;;;11.80;;
42904;SDS011;28550;51.228;4.528;2023-09-18T01:37:19;14.48;;;10.38;;
42904;SDS011;28550;51.228;4.528;2023-09-18T01:39:49;15.00;;;10.68;;
42904;SDS011;28550;51.228;4.528;2023-09-18T01:42:15;16.67;;;11.35;;
42904;SDS011;28550;51.228;4.528;2023-09-18T01:44:42;16.00;;;11.73;;
42904;SDS011;28550;51.228;4.528;2023-09-18T01:47:12;17.23;;;10.93;;
42904;SDS011;28550;51.228;4.528;2023-09-18T01:49:40;17.05;;;11.73;;
42904;SDS011;28550;51.228;4.528;2023-09-18T01:52:06;17.38;;;11.40;;
42904;SDS011;28550;51.228;4.528;2023-09-18T01:54:35;15.98;;;10.30;;
42904;SDS011;28550;51.228;4.528;2023-09-18T01:57:01;17.38;;;10.85;;
42904;SDS011;28550;51.228;4.528;2023-09-18T01:59:28;15.02;;;10.40;;
42904;SDS011;28550;51.228;4.528;2023-09-18T02:01:54;21.23;;;10.88;;
42904;SDS011;28550;51.228;4.528;2023-09-18T02:04:20;16.88;;;11.63;;
42904;SDS011;28550;51.228;4.528;2023-09-18T02:06:46;16.58;;;10.93;;
42904;SDS011;28550;51.228;4.528;2023-09-18T02:09:13;14.48;;;10.77;;
42904;SDS011;28550;51.228;4.528;2023-09-18T02:11:40;18.60;;;12.23;;
42904;SDS011;28550;51.228;4.528;2023-09-18T02:14:07;15.57;;;11.90;;
42904;SDS011;28550;51.228;4.528;2023-09-18T02:16:34;18.20;;;12.35;;
42904;SDS011;28550;51.228;4.528;2023-09-18T02:19:02;19.50;;;12.57;;
42904;SDS011;28550;51.228;4.528;2023-09-18T02:21:28;20.13;;;12.35;;
42904;SDS011;28550;51.228;4.528;2023-09-18T02:23:54;13.75;;;10.90;;
42904;SDS011;28550;51.228;4.528;2023-09-18T02:26:20;19.92;;;12.45;;
42904;SDS011;28550;51.228;4.528;2023-09-18T02:28:46;17.42;;;11.65;;
42904;SDS011;28550;51.228;4.528;2023-09-18T02:31:12;20.88;;;11.68;;
42904;SDS011;28550;51.228;4.528;2023-09-18T02:33:39;13.13;;;10.60;;
42904;SDS011;28550;51.228;4.528;2023-09-18T02:36:05;18.63;;;11.93;;
42904;SDS011;28550;51.228;4.528;2023-09-18T02:38:31;19.13;;;12.52;;
42904;SDS011;28550;51.228;4.528;2023-09-18T02:40:58;17.27;;;11.45;;
42904;SDS011;28550;51.228;4.528;2023-09-18T02:43:24;20.55;;;13.10;;
42904;SDS011;28550;51.228;4.528;2023-09-18T02:45:50;18.38;;;12.35;;
42904;SDS011;28550;51.228;4.528;2023-09-18T02:48:16;19.17;;;13.10;;
42904;SDS011;28550;51.228;4.528;2023-09-18T02:50:42;18.85;;;13.10;;
42904;SDS011;28550;51.228;4.528;2023-09-18T02:53:12;20.63;;;13.65;;
42904;SDS011;28550;51.228;4.528;2023-09-18T02:55:51;19.55;;;12.32;;
42904;SDS011;28550;51.228;4.528;2023-09-18T02:58:18;19.38;;;12.52;;
42904;SDS011;28550;51.228;4.528;2023-09-18T03:00:45;16.23;;;11.80;;
42904;SDS011;28550;51.228;4.528;2023-09-18T03:03:12;20.55;;;12.18;;
42904;SDS011;28550;51.228;4.528;2023-09-18T03:05:38;16.55;;;11.55;;
42904;SDS011;28550;51.228;4.528;2023-09-18T03:08:05;17.52;;;11.65;;
42904;SDS011;28550;51.228;4.528;2023-09-18T03:10:34;18.48;;;11.32;;
42904;SDS011;28550;51.228;4.528;2023-09-18T03:13:01;13.60;;;11.10;;
42904;SDS011;28550;51.228;4.528;2023-09-18T03:15:27;20.63;;;12.05;;
42904;SDS011;28550;51.228;4.528;2023-09-18T03:17:53;15.60;;;11.40;;
42904;SDS011;28550;51.228;4.528;2023-09-18T03:20:23;15.98;;;11.38;;
42904;SDS011;28550;51.228;4.528;2023-09-18T03:22:53;15.25;;;11.45;;
42904;SDS011;28550;51.228;4.528;2023-09-18T03:25:20;18.92;;;11.50;;
42904;SDS011;28550;51.228;4.528;2023-09-18T03:27:47;15.77;;;11.35;;
42904;SDS011;28550;51.228;4.528;2023-09-18T03:30:12;21.80;;;12.20;;
42904;SDS011;28550;51.228;4.528;2023-09-18T03:32:41;18.92;;;12.25;;
42904;SDS011;28550;51.228;4.528;2023-09-18T03:35:10;19.27;;;11.10;;
42904;SDS011;28550;51.228;4.528;2023-09-18T03:37:46;14.93;;;12.10;;
42904;SDS011;28550;51.228;4.528;2023-09-18T03:40:21;18.38;;;11.75;;
42904;SDS011;28550;51.228;4.528;2023-09-18T03:42:47;17.83;;;12.07;;
42904;SDS011;28550;51.228;4.528;2023-09-18T03:45:14;18.77;;;10.90;;
42904;SDS011;28550;51.228;4.528;2023-09-18T03:47:40;16.70;;;11.05;;
42904;SDS011;28550;51.228;4.528;2023-09-18T03:50:07;17.30;;;11.52;;
42904;SDS011;28550;51.228;4.528;2023-09-18T03:52:37;17.05;;;12.02;;
42904;SDS011;28550;51.228;4.528;2023-09-18T03:55:04;17.25;;;11.27;;
42904;SDS011;28550;51.228;4.528;2023-09-18T03:57:33;15.18;;;11.55;;
42904;SDS011;28550;51.228;4.528;2023-09-18T03:59:59;16.27;;;11.05;;
42904;SDS011;28550;51.228;4.528;2023-09-18T04:02:25;16.35;;;9.55;;
42904;SDS011;28550;51.228;4.528;2023-09-18T04:04:51;15.45;;;9.55;;
42904;SDS011;28550;51.228;4.528;2023-09-18T04:07:18;11.55;;;9.18;;
42904;SDS011;28550;51.228;4.528;2023-09-18T04:09:47;12.68;;;9.00;;
42904;SDS011;28550;51.228;4.528;2023-09-18T04:12:13;13.65;;;8.07;;
42904;SDS011;28550;51.228;4.528;2023-09-18T04:14:39;13.90;;;9.00;;
42904;SDS011;28550;51.228;4.528;2023-09-18T04:17:05;16.02;;;9.30;;
42904;SDS011;28550;51.228;4.528;2023-09-18T04:19:30;11.20;;;8.80;;
42904;SDS011;28550;51.228;4.528;2023-09-18T04:21:56;12.45;;;8.20;;
42904;SDS011;28550;51.228;4.528;2023-09-18T04:24:22;12.95;;;8.45;;
42904;SDS011;28550;51.228;4.528;2023-09-18T04:26:48;12.77;;;8.13;;
42904;SDS011;28550;51.228;4.528;2023-09-18T04:29:16;15.30;;;8.50;;
42904;SDS011;28550;51.228;4.528;2023-09-18T04:31:42;12.20;;;8.30;;
42904;SDS011;28550;51.228;4.528;2023-09-18T04:34:07;9.10;;;7.13;;
42904;SDS011;28550;51.228;4.528;2023-09-18T04:36:33;13.27;;;7.35;;
42904;SDS011;28550;51.228;4.528;2023-09-18T04:38:59;10.43;;;7.07;;
42904;SDS011;28550;51.228;4.528;2023-09-18T04:41:24;8.70;;;6.45;;
42904;SDS011;28550;51.228;4.528;2023-09-18T04:43:50;12.60;;;7.13;;
42904;SDS011;28550;51.228;4.528;2023-09-18T04:46:16;11.10;;;5.60;;
42904;SDS011;28550;51.228;4.528;2023-09-18T04:48:42;8.55;;;5.20;;
42904;SDS011;28550;51.228;4.528;2023-09-18T04:51:07;6.70;;;5.13;;
42904;SDS011;28550;51.228;4.528;2023-09-18T04:53:33;8.48;;;5.50;;
42904;SDS011;28550;51.228;4.528;2023-09-18T04:56:05;7.30;;;5.13;;
42904;SDS011;28550;51.228;4.528;2023-09-18T04:58:31;8.45;;;5.07;;
42904;SDS011;28550;51.228;4.528;2023-09-18T05:00:57;9.55;;;5.28;;
42904;SDS011;28550;51.228;4.528;2023-09-18T05:03:24;7.97;;;4.82;;
42904;SDS011;28550;51.228;4.528;2023-09-18T05:05:51;6.80;;;4.97;;
42904;SDS011;28550;51.228;4.528;2023-09-18T05:08:17;10.35;;;4.38;;
42904;SDS011;28550;51.228;4.528;2023-09-18T05:10:43;7.80;;;3.92;;
42904;SDS011;28550;51.228;4.528;2023-09-18T05:13:09;5.63;;;4.05;;
42904;SDS011;28550;51.228;4.528;2023-09-18T05:15:37;8.88;;;5.20;;
42904;SDS011;28550;51.228;4.528;2023-09-18T05:18:03;5.28;;;3.65;;
42904;SDS011;28550;51.228;4.528;2023-09-18T05:20:29;7.07;;;4.00;;
42904;SDS011;28550;51.228;4.528;2023-09-18T05:22:56;6.53;;;3.95;;
42904;SDS011;28550;51.228;4.528;2023-09-18T05:25:24;5.28;;;3.58;;
42904;SDS011;28550;51.228;4.528;2023-09-18T05:27:54;6.05;;;3.22;;
42904;SDS011;28550;51.228;4.528;2023-09-18T05:30:30;8.10;;;3.83;;
42904;SDS011;28550;51.228;4.528;2023-09-18T05:32:59;6.03;;;3.03;;
42904;SDS011;28550;51.228;4.528;2023-09-18T05:35:34;6.32;;;3.63;;
42904;SDS011;28550;51.228;4.528;2023-09-18T05:38:08;10.55;;;3.33;;
42904;SDS011;28550;51.228;4.528;2023-09-18T05:40:36;5.15;;;2.60;;
42904;SDS011;28550;51.228;4.528;2023-09-18T05:43:02;6.50;;;3.08;;
42904;SDS011;28550;51.228;4.528;2023-09-18T05:45:27;4.43;;;2.80;;
42904;SDS011;28550;51.228;4.528;2023-09-18T05:47:54;3.63;;;2.50;;
42904;SDS011;28550;51.228;4.528;2023-09-18T05:50:26;7.70;;;3.08;;
42904;SDS011;28550;51.228;4.528;2023-09-18T05:52:55;25.10;;;3.50;;
42904;SDS011;28550;51.228;4.528;2023-09-18T05:55:24;4.20;;;2.45;;
42904;SDS011;28550;51.228;4.528;2023-09-18T05:57:53;6.20;;;2.92;;
42904;SDS011;28550;51.228;4.528;2023-09-18T06:00:19;6.68;;;2.70;;
42904;SDS011;28550;51.228;4.528;2023-09-18T06:02:46;5.97;;;3.28;;
42904;SDS011;28550;51.228;4.528;2023-09-18T06:05:18;6.05;;;3.22;;
42904;SDS011;28550;51.228;4.528;2023-09-18T06:07:47;9.73;;;3.20;;
42904;SDS011;28550;51.228;4.528;2023-09-18T06:10:13;7.55;;;2.95;;
42904;SDS011;28550;51.228;4.528;2023-09-18T06:12:39;3.83;;;2.78;;
42904;SDS011;28550;51.228;4.528;2023-09-18T06:15:07;5.78;;;2.35;;
42904;SDS011;28550;51.228;4.528;2023-09-18T06:17:54;5.03;;;3.05;;
42904;SDS011;28550;51.228;4.528;2023-09-18T06:20:19;3.55;;;2.60;;
42904;SDS011;28550;51.228;4.528;2023-09-18T06:22:45;4.63;;;2.40;;
42904;SDS011;28550;51.228;4.528;2023-09-18T06:25:11;5.40;;;3.17;;
42904;SDS011;28550;51.228;4.528;2023-09-18T06:27:37;5.93;;;3.00;;
42904;SDS011;28550;51.228;4.528;2023-09-18T06:30:07;4.32;;;2.78;;
42904;SDS011;28550;51.228;4.528;2023-09-18T06:32:33;6.85;;;3.05;;
42904;SDS011;28550;51.228;4.528;2023-09-18T06:34:59;4.63;;;2.85;;
42904;SDS011;28550;51.228;4.528;2023-09-18T06:37:26;6.07;;;3.20;;
42904;SDS011;28550;51.228;4.528;2023-09-18T06:39:52;6.38;;;2.60;;
42904;SDS011;28550;51.228;4.528;2023-09-18T06:42:18;5.18;;;3.10;;
42904;SDS011;28550;51.228;4.528;2023-09-18T06:44:43;6.68;;;2.65;;
42904;SDS011;28550;51.228;4.528;2023-09-18T06:47:09;4.82;;;2.90;;
42904;SDS011;28550;51.228;4.528;2023-09-18T06:49:35;4.82;;;2.47;;
42904;SDS011;28550;51.228;4.528;2023-09-18T06:52:01;3.33;;;2.45;;
42904;SDS011;28550;51.228;4.528;2023-09-18T06:54:26;5.15;;;2.38;;
42904;SDS011;28550;51.228;4.528;2023-09-18T06:56:52;4.45;;;2.53;;
42904;SDS011;28550;51.228;4.528;2023-09-18T06:59:17;6.10;;;3.33;;
42904;SDS011;28550;51.228;4.528;2023-09-18T07:01:43;5.13;;;2.67;;
42904;SDS011;28550;51.228;4.528;2023-09-18T07:04:09;6.20;;;2.72;;
42904;SDS011;28550;51.228;4.528;2023-09-18T07:06:35;6.13;;;3.47;;
42904;SDS011;28550;51.228;4.528;2023-09-18T07:09:00;6.00;;;3.22;;
42904;SDS011;28550;51.228;4.528;2023-09-18T07:11:28;5.90;;;2.90;;
42904;SDS011;28550;51.228;4.528;2023-09-18T07:13:53;4.82;;;2.85;;
42904;SDS011;28550;51.228;4.528;2023-09-18T07:16:19;4.25;;;2.70;;
42904;SDS011;28550;51.228;4.528;2023-09-18T07:18:44;7.13;;;2.80;;
42904;SDS011;28550;51.228;4.528;2023-09-18T07:21:10;3.35;;;2.40;;
42904;SDS011;28550;51.228;4.528;2023-09-18T07:23:36;6.10;;;2.72;;
42904;SDS011;28550;51.228;4.528;2023-09-18T07:26:02;5.85;;;2.25;;
42904;SDS011;28550;51.228;4.528;2023-09-18T07:28:28;5.20;;;2.80;;
42904;SDS011;28550;51.228;4.528;2023-09-18T07:30:54;6.93;;;2.80;;
42904;SDS011;28550;51.228;4.528;2023-09-18T07:33:19;6.32;;;3.10;;
42904;SDS011;28550;51.228;4.528;2023-09-18T07:35:49;7.75;;;3.05;;
42904;SDS011;28550;51.228;4.528;2023-09-18T07:38:17;3.70;;;2.67;;
42904;SDS011;28550;51.228;4.528;2023-09-18T07:40:44;5.22;;;2.75;;
42904;SDS011;28550;51.228;4.528;2023-09-18T07:43:10;7.97;;;2.90;;
42904;SDS011;28550;51.228;4.528;2023-09-18T07:45:38;5.93;;;2.50;;
42904;SDS011;28550;51.228;4.528;2023-09-18T07:48:05;4.68;;;2.80;;
42904;SDS011;28550;51.228;4.528;2023-09-18T07:50:35;3.88;;;2.90;;
42904;SDS011;28550;51.228;4.528;2023-09-18T07:53:01;4.00;;;2.80;;
42904;SDS011;28550;51.228;4.528;2023-09-18T07:55:27;5.47;;;2.33;;
42904;SDS011;28550;51.228;4.528;2023-09-18T07:57:54;11.30;;;3.17;;
42904;SDS011;28550;51.228;4.528;2023-09-18T08:00:20;7.05;;;2.65;;
42904;SDS011;28550;51.228;4.528;2023-09-18T08:02:47;6.38;;;2.50;;
42904;SDS011;28550;51.228;4.528;2023-09-18T08:05:15;3.20;;;2.33;;
42904;SDS011;28550;51.228;4.528;2023-09-18T08:07:44;5.50;;;2.50;;
42904;SDS011;28550;51.228;4.528;2023-09-18T08:10:12;5.20;;;2.78;;
42904;SDS011;28550;51.228;4.528;2023-09-18T08:12:37;4.40;;;2.88;;
42904;SDS011;28550;51.228;4.528;2023-09-18T08:15:03;5.75;;;3.20;;
42904;SDS011;28550;51.228;4.528;2023-09-18T08:17:30;6.53;;;3.85;;
42904;SDS011;28550;51.228;4.528;2023-09-18T08:19:56;9.13;;;4.13;;
42904;SDS011;28550;51.228;4.528;2023-09-18T08:22:23;4.95;;;3.70;;
42904;SDS011;28550;51.228;4.528;2023-09-18T08:24:49;5.32;;;3.50;;
42904;SDS011;28550;51.228;4.528;2023-09-18T08:27:17;6.22;;;3.95;;
42904;SDS011;28550;51.228;4.528;2023-09-18T08:29:46;7.13;;;4.07;;
42904;SDS011;28550;51.228;4.528;2023-09-18T08:32:12;11.18;;;3.65;;
42904;SDS011;28550;51.228;4.528;2023-09-18T08:34:38;6.35;;;3.88;;
42904;SDS011;28550;51.228;4.528;2023-09-18T08:37:04;8.20;;;3.95;;
42904;SDS011;28550;51.228;4.528;2023-09-18T08:39:29;7.20;;;4.35;;
42904;SDS011;28550;51.228;4.528;2023-09-18T08:42:02;12.27;;;4.80;;
42904;SDS011;28550;51.228;4.528;2023-09-18T08:44:29;6.70;;;4.85;;
42904;SDS011;28550;51.228;4.528;2023-09-18T08:46:56;8.07;;;4.05;;
42904;SDS011;28550;51.228;4.528;2023-09-18T08:49:23;8.38;;;4.38;;
42904;SDS011;28550;51.228;4.528;2023-09-18T08:51:54;10.52;;;4.13;;
42904;SDS011;28550;51.228;4.528;2023-09-18T08:54:23;6.32;;;4.15;;
42904;SDS011;28550;51.228;4.528;2023-09-18T08:56:52;8.65;;;4.15;;
42904;SDS011;28550;51.228;4.528;2023-09-18T08:59:19;7.18;;;4.05;;
42904;SDS011;28550;51.228;4.528;2023-09-18T09:01:48;5.72;;;3.45;;
42904;SDS011;28550;51.228;4.528;2023-09-18T09:04:14;8.30;;;4.00;;
42904;SDS011;28550;51.228;4.528;2023-09-18T09:06:40;8.88;;;3.88;;
42904;SDS011;28550;51.228;4.528;2023-09-18T09:09:05;10.05;;;3.63;;
42904;SDS011;28550;51.228;4.528;2023-09-18T09:11:33;5.60;;;3.70;;
42904;SDS011;28550;51.228;4.528;2023-09-18T09:14:12;7.57;;;5.43;;
42904;SDS011;28550;51.228;4.528;2023-09-18T09:16:53;8.43;;;4.20;;
42904;SDS011;28550;51.228;4.528;2023-09-18T09:19:30;8.18;;;4.20;;
42904;SDS011;28550;51.228;4.528;2023-09-18T09:21:57;7.90;;;4.93;;
42904;SDS011;28550;51.228;4.528;2023-09-18T09:24:36;9.10;;;4.70;;
42904;SDS011;28550;51.228;4.528;2023-09-18T09:27:06;10.32;;;4.97;;
42904;SDS011;28550;51.228;4.528;2023-09-18T09:29:33;9.73;;;4.35;;
42904;SDS011;28550;51.228;4.528;2023-09-18T09:32:15;5.72;;;4.30;;
42904;SDS011;28550;51.228;4.528;2023-09-18T09:34:42;10.48;;;4.93;;
42904;SDS011;28550;51.228;4.528;2023-09-18T09:37:08;10.93;;;6.20;;
42904;SDS011;28550;51.228;4.528;2023-09-18T09:39:51;7.47;;;4.60;;
42904;SDS011;28550;51.228;4.528;2023-09-18T09:42:17;9.25;;;5.20;;
42904;SDS011;28550;51.228;4.528;2023-09-18T09:44:55;10.10;;;5.20;;
42904;SDS011;28550;51.228;4.528;2023-09-18T09:47:31;7.38;;;5.38;;
42904;SDS011;28550;51.228;4.528;2023-09-18T09:50:05;9.68;;;5.38;;
42904;SDS011;28550;51.228;4.528;2023-09-18T09:52:45;11.30;;;5.22;;
42904;SDS011;28550;51.228;4.528;2023-09-18T09:58:07;7.63;;;4.97;;
42904;SDS011;28550;51.228;4.528;2023-09-18T10:00:49;14.65;;;5.32;;
42904;SDS011;28550;51.228;4.528;2023-09-18T10:03:20;8.82;;;5.35;;
42904;SDS011;28550;51.228;4.528;2023-09-18T10:05:47;8.48;;;4.82;;
42904;SDS011;28550;51.228;4.528;2023-09-18T10:08:34;9.13;;;5.93;;
42904;SDS011;28550;51.228;4.528;2023-09-18T10:11:05;11.43;;;5.40;;
42904;SDS011;28550;51.228;4.528;2023-09-18T10:14:19;11.43;;;5.33;;
42904;SDS011;28550;51.228;4.528;2023-09-18T10:16:25;10.43;;;5.00;;
42904;SDS011;28550;51.228;4.528;2023-09-18T10:19:06;5.82;;;4.70;;
42904;SDS011;28550;51.228;4.528;2023-09-18T10:21:57;10.75;;;4.60;;
42904;SDS011;28550;51.228;4.528;2023-09-18T10:24:36;7.47;;;4.87;;
42904;SDS011;28550;51.228;4.528;2023-09-18T10:27:06;10.50;;;4.65;;
42904;SDS011;28550;51.228;4.528;2023-09-18T10:29:34;8.80;;;5.20;;
42904;SDS011;28550;51.228;4.528;2023-09-18T10:32:05;10.27;;;5.25;;
42904;SDS011;28550;51.228;4.528;2023-09-18T10:34:35;6.13;;;4.30;;
42904;SDS011;28550;51.228;4.528;2023-09-18T10:37:02;4.85;;;4.28;;
42904;SDS011;28550;51.228;4.528;2023-09-18T10:39:34;10.98;;;5.00;;
42904;SDS011;28550;51.228;4.528;2023-09-18T10:42:02;9.43;;;4.68;;
42904;SDS011;28550;51.228;4.528;2023-09-18T10:44:28;11.57;;;5.40;;
42904;SDS011;28550;51.228;4.528;2023-09-18T10:46:58;10.18;;;5.25;;
42904;SDS011;28550;51.228;4.528;2023-09-18T10:49:26;8.30;;;4.68;;
42904;SDS011;28550;51.228;4.528;2023-09-18T10:51:53;9.23;;;5.13;;
42904;SDS011;28550;51.228;4.528;2023-09-18T10:54:20;6.57;;;5.18;;
42904;SDS011;28550;51.228;4.528;2023-09-18T10:56:49;7.82;;;5.47;;
42904;SDS011;28550;51.228;4.528;2023-09-18T10:59:16;6.70;;;4.90;;
42904;SDS011;28550;51.228;4.528;2023-09-18T11:01:42;8.90;;;5.13;;
42904;SDS011;28550;51.228;4.528;2023-09-18T11:04:10;6.90;;;4.43;;
42904;SDS011;28550;51.228;4.528;2023-09-18T11:09:24;7.75;;;4.68;;
42904;SDS011;28550;51.228;4.528;2023-09-18T11:14:44;6.13;;;4.15;;
42904;SDS011;28550;51.228;4.528;2023-09-18T11:20:01;9.63;;;3.85;;
42904;SDS011;28550;51.228;4.528;2023-09-18T11:22:30;5.80;;;3.60;;
42904;SDS011;28550;51.228;4.528;2023-09-18T11:25:28;7.80;;;3.80;;
42904;SDS011;28550;51.228;4.528;2023-09-18T11:27:59;4.97;;;3.50;;
42904;SDS011;28550;51.228;4.528;2023-09-18T11:30:25;4.95;;;2.72;;
42904;SDS011;28550;51.228;4.528;2023-09-18T11:32:51;6.55;;;3.38;;
42904;SDS011;28550;51.228;4.528;2023-09-18T11:35:18;6.57;;;3.83;;
42904;SDS011;28550;51.228;4.528;2023-09-18T11:37:45;3.83;;;3.40;;
42904;SDS011;28550;51.228;4.528;2023-09-18T11:40:29;7.55;;;3.15;;
42904;SDS011;28550;51.228;4.528;2023-09-18T11:43:21;4.18;;;3.15;;
42904;SDS011;28550;51.228;4.528;2023-09-18T11:45:48;5.90;;;3.20;;
42904;SDS011;28550;51.228;4.528;2023-09-18T11:48:16;6.28;;;3.15;;
42904;SDS011;28550;51.228;4.528;2023-09-18T11:50:44;8.50;;;3.80;;
42904;SDS011;28550;51.228;4.528;2023-09-18T11:53:11;7.63;;;3.92;;
42904;SDS011;28550;51.228;4.528;2023-09-18T11:55:40;4.97;;;3.63;;
42904;SDS011;28550;51.228;4.528;2023-09-18T11:58:07;3.60;;;2.60;;
42904;SDS011;28550;51.228;4.528;2023-09-18T12:00:34;7.03;;;2.67;;
42904;SDS011;28550;51.228;4.528;2023-09-18T12:05:59;8.93;;;3.10;;
42904;SDS011;28550;51.228;4.528;2023-09-18T12:08:27;5.47;;;2.83;;
42904;SDS011;28550;51.228;4.528;2023-09-18T12:10:58;6.90;;;2.97;;
42904;SDS011;28550;51.228;4.528;2023-09-18T12:13:24;3.65;;;2.60;;
42904;SDS011;28550;51.228;4.528;2023-09-18T12:15:55;5.35;;;2.75;;
42904;SDS011;28550;51.228;4.528;2023-09-18T12:18:30;4.75;;;1.92;;
42904;SDS011;28550;51.228;4.528;2023-09-18T12:20:57;3.47;;;2.20;;
42904;SDS011;28550;51.228;4.528;2023-09-18T12:23:38;3.78;;;2.33;;
42904;SDS011;28550;51.228;4.528;2023-09-18T12:26:09;4.47;;;2.78;;
42904;SDS011;28550;51.228;4.528;2023-09-18T12:28:44;5.97;;;3.00;;
42904;SDS011;28550;51.228;4.528;2023-09-18T12:31:11;3.67;;;2.42;;
42904;SDS011;28550;51.228;4.528;2023-09-18T12:33:37;6.07;;;2.38;;
42904;SDS011;28550;51.228;4.528;2023-09-18T12:36:18;4.35;;;2.65;;
42904;SDS011;28550;51.228;4.528;2023-09-18T12:38:54;2.90;;;2.25;;
42904;SDS011;28550;51.228;4.528;2023-09-18T12:41:21;5.65;;;2.55;;
42904;SDS011;28550;51.228;4.528;2023-09-18T12:43:49;3.22;;;2.05;;
42904;SDS011;28550;51.228;4.528;2023-09-18T12:46:15;6.32;;;2.35;;
42904;SDS011;28550;51.228;4.528;2023-09-18T12:48:43;2.55;;;2.03;;
42904;SDS011;28550;51.228;4.528;2023-09-18T12:51:12;4.70;;;1.83;;
42904;SDS011;28550;51.228;4.528;2023-09-18T12:53:39;4.38;;;2.40;;
42904;SDS011;28550;51.228;4.528;2023-09-18T12:56:08;7.22;;;2.35;;
42904;SDS011;28550;51.228;4.528;2023-09-18T12:58:37;6.53;;;2.20;;
42904;SDS011;28550;51.228;4.528;2023-09-18T13:01:08;4.25;;;2.38;;
42904;SDS011;28550;51.228;4.528;2023-09-18T13:03:44;4.78;;;2.63;;
42904;SDS011;28550;51.228;4.528;2023-09-18T13:06:18;3.92;;;2.13;;
42904;SDS011;28550;51.228;4.528;2023-09-18T13:08:44;7.72;;;2.90;;
42904;SDS011;28550;51.228;4.528;2023-09-18T13:11:11;2.72;;;2.35;;
42904;SDS011;28550;51.228;4.528;2023-09-18T13:13:39;3.05;;;2.20;;
42904;SDS011;28550;51.228;4.528;2023-09-18T13:16:06;7.13;;;2.47;;
42904;SDS011;28550;51.228;4.528;2023-09-18T13:18:34;3.35;;;2.10;;
42904;SDS011;28550;51.228;4.528;2023-09-18T13:21:10;5.68;;;2.20;;
42904;SDS011;28550;51.228;4.528;2023-09-18T13:23:37;4.28;;;2.03;;
42904;SDS011;28550;51.228;4.528;2023-09-18T13:26:04;4.05;;;2.22;;
42904;SDS011;28550;51.228;4.528;2023-09-18T13:28:31;4.60;;;2.67;;
42904;SDS011;28550;51.228;4.528;2023-09-18T13:30:59;5.80;;;2.80;;
42904;SDS011;28550;51.228;4.528;2023-09-18T13:33:24;5.95;;;2.00;;
42904;SDS011;28550;51.228;4.528;2023-09-18T13:35:50;4.75;;;2.05;;
42904;SDS011;28550;51.228;4.528;2023-09-18T13:38:18;3.30;;;1.90;;
42904;SDS011;28550;51.228;4.528;2023-09-18T13:40:45;7.90;;;2.95;;
42904;SDS011;28550;51.228;4.528;2023-09-18T13:43:11;3.83;;;1.60;;
42904;SDS011;28550;51.228;4.528;2023-09-18T13:45:40;6.95;;;2.40;;
42904;SDS011;28550;51.228;4.528;2023-09-18T13:48:06;4.35;;;2.40;;
42904;SDS011;28550;51.228;4.528;2023-09-18T13:50:33;4.38;;;2.58;;
42904;SDS011;28550;51.228;4.528;2023-09-18T13:53:00;5.45;;;2.50;;
42904;SDS011;28550;51.228;4.528;2023-09-18T13:55:28;8.63;;;2.28;;
42904;SDS011;28550;51.228;4.528;2023-09-18T13:57:54;3.63;;;2.05;;
42904;SDS011;28550;51.228;4.528;2023-09-18T14:00:21;3.85;;;2.53;;
42904;SDS011;28550;51.228;4.528;2023-09-18T14:02:48;3.45;;;2.47;;
42904;SDS011;28550;51.228;4.528;2023-09-18T14:05:13;7.18;;;2.53;;
42904;SDS011;28550;51.228;4.528;2023-09-18T14:07:40;4.05;;;2.58;;
42904;SDS011;28550;51.228;4.528;2023-09-18T14:10:09;5.57;;;2.20;;
42904;SDS011;28550;51.228;4.528;2023-09-18T14:12:36;3.72;;;2.05;;
42904;SDS011;28550;51.228;4.528;2023-09-18T14:15:04;5.60;;;2.20;;
42904;SDS011;28550;51.228;4.528;2023-09-18T14:17:30;6.90;;;2.25;;
42904;SDS011;28550;51.228;4.528;2023-09-18T14:19:56;9.85;;;2.60;;
42904;SDS011;28550;51.228;4.528;2023-09-18T14:22:21;11.38;;;1.80;;
42904;SDS011;28550;51.228;4.528;2023-09-18T14:24:47;10.52;;;2.75;;
42904;SDS011;28550;51.228;4.528;2023-09-18T14:27:13;5.78;;;1.95;;
42904;SDS011;28550;51.228;4.528;2023-09-18T14:29:51;4.03;;;2.17;;
42904;SDS011;28550;51.228;4.528;2023-09-18T14:32:17;8.98;;;2.80;;
42904;SDS011;28550;51.228;4.528;2023-09-18T14:34:42;15.93;;;3.85;;
42904;SDS011;28550;51.228;4.528;2023-09-18T14:37:09;9.38;;;3.25;;
42904;SDS011;28550;51.228;4.528;2023-09-18T14:39:35;22.70;;;4.03;;
42904;SDS011;28550;51.228;4.528;2023-09-18T14:42:00;8.68;;;3.35;;
42904;SDS011;28550;51.228;4.528;2023-09-18T14:44:27;10.85;;;3.10;;
42904;SDS011;28550;51.228;4.528;2023-09-18T14:46:53;5.30;;;2.80;;
42904;SDS011;28550;51.228;4.528;2023-09-18T14:49:20;6.45;;;3.47;;
42904;SDS011;28550;51.228;4.528;2023-09-18T14:51:45;7.40;;;3.55;;
42904;SDS011;28550;51.228;4.528;2023-09-18T14:54:12;6.30;;;2.65;;
42904;SDS011;28550;51.228;4.528;2023-09-18T14:56:41;6.38;;;2.60;;
42904;SDS011;28550;51.228;4.528;2023-09-18T14:59:07;4.15;;;2.25;;
42904;SDS011;28550;51.228;4.528;2023-09-18T15:01:33;4.55;;;2.10;;